Time;durP1;ratioP1;P1;durP2;ratioP2;P2;SDS_P1;SDS_P2;PMS_P1;PMS_P2;Temp;Humidity;BMP_temperature;BMP_pressure;BME280_temperature;BME280_humidity;BME280_pressure;Samples;Min_cycle;Max_cycle;Signal;HPM_P1;HPM_P2
2022/02/23 00:00:23;;;;;;;2.63;1.80;;;;;;;;;;5069105;28;24379;-52
2022/02/23 00:02:49;;;;;;;2.65;1.60;;;;;;;;;;5073248;28;24722;-52
2022/02/23 00:05:14;;;;;;;1.87;1.60;;;;;;;;;;5068930;28;24811;-51
2022/02/23 00:07:39;;;;;;;2.38;2.00;;;;;;;;;;5069123;28;24535;-52
2022/02/23 00:10:04;;;;;;;3.70;1.80;;;;;;;;;;5070828;28;24816;-52
2022/02/23 00:12:30;;;;;;;2.57;1.50;;;;;;;;;;5082714;28;24459;-52
2022/02/23 00:14:57;;;;;;;2.20;1.65;;;;;;;;;;5085091;28;24471;-52
2022/02/23 00:17:25;;;;;;;2.60;1.80;;;;;;;;;;5080331;28;24426;-52
2022/02/23 00:19:50;;;;;;;3.10;1.80;;;;;;;;;;5068691;28;25020;-51
2022/02/23 00:22:15;;;;;;;1.77;1.67;;;;;;;;;;5071680;28;24901;-52
2022/02/23 00:24:40;;;;;;;2.50;1.77;;;;;;;;;;5071849;28;24438;-52
2022/02/23 00:27:05;;;;;;;1.88;1.42;;;;;;;;;;5068413;28;24580;-51
2022/02/23 00:29:30;;;;;;;3.00;1.50;;;;;;;;;;5082102;28;24415;-51
2022/02/23 00:31:55;;;;;;;1.67;1.58;;;;;;;;;;5073502;28;24971;-51
2022/02/23 00:34:21;;;;;;;2.80;1.90;;;;;;;;;;5077818;28;24484;-51
2022/02/23 00:36:46;;;;;;;2.17;1.60;;;;;;;;;;5071508;28;24765;-52
2022/02/23 00:39:11;;;;;;;3.70;1.90;;;;;;;;;;5068422;28;24510;-51
2022/02/23 00:41:36;;;;;;;1.77;1.40;;;;;;;;;;5071956;28;24422;-51
2022/02/23 00:44:01;;;;;;;2.83;1.70;;;;;;;;;;5068267;28;24765;-51
2022/02/23 00:46:26;;;;;;;3.83;2.10;;;;;;;;;;5072209;28;24412;-51
2022/02/23 00:48:53;;;;;;;2.97;1.73;;;;;;;;;;5088623;28;24386;-51
2022/02/23 00:51:19;;;;;;;4.43;2.17;;;;;;;;;;5080235;28;24502;-52
2022/02/23 00:53:44;;;;;;;2.60;1.80;;;;;;;;;;5088072;28;24509;-51
2022/02/23 00:56:09;;;;;;;4.10;1.90;;;;;;;;;;5073534;28;24501;-51
2022/02/23 00:58:34;;;;;;;2.30;1.80;;;;;;;;;;5069108;28;25014;-52
2022/02/23 01:00:59;;;;;;;5.23;2.13;;;;;;;;;;5068317;28;24452;-51
2022/02/23 01:03:24;;;;;;;4.30;1.88;;;;;;;;;;5082937;28;24502;-52
2022/02/23 01:05:49;;;;;;;2.97;1.80;;;;;;;;;;5085690;28;24450;-52
2022/02/23 01:08:15;;;;;;;3.38;1.98;;;;;;;;;;5076827;28;24983;-51
2022/02/23 01:10:40;;;;;;;4.95;1.80;;;;;;;;;;5067997;28;24505;-52
2022/02/23 01:13:05;;;;;;;3.13;1.60;;;;;;;;;;5067467;28;24582;-52
2022/02/23 01:15:30;;;;;;;3.88;2.20;;;;;;;;;;5069898;28;24769;-52
2022/02/23 01:17:55;;;;;;;4.40;2.10;;;;;;;;;;5067328;28;24415;-52
2022/02/23 01:20:20;;;;;;;4.70;2.10;;;;;;;;;;5068667;28;24478;-52
2022/02/23 01:22:46;;;;;;;3.60;2.10;;;;;;;;;;5083936;28;24450;-52
2022/02/23 01:25:11;;;;;;;4.87;2.60;;;;;;;;;;5067543;28;24816;-52
2022/02/23 01:27:36;;;;;;;4.73;2.10;;;;;;;;;;5067256;28;24411;-51
2022/02/23 01:30:03;;;;;;;5.13;2.25;;;;;;;;;;5081497;28;25074;-51
2022/02/23 01:32:28;;;;;;;7.20;2.60;;;;;;;;;;5068697;28;24437;-52
2022/02/23 01:34:53;;;;;;;4.28;2.33;;;;;;;;;;5085786;28;24497;-51
2022/02/23 01:37:19;;;;;;;5.17;2.60;;;;;;;;;;5087349;28;24428;-52
2022/02/23 01:39:44;;;;;;;9.07;3.10;;;;;;;;;;5079569;28;24841;-50
2022/02/23 01:42:11;;;;;;;6.68;2.83;;;;;;;;;;5066559;28;24525;-51
2022/02/23 01:44:36;;;;;;;8.07;2.90;;;;;;;;;;5062226;28;25192;-52
2022/02/23 01:47:01;;;;;;;6.88;2.95;;;;;;;;;;5061855;28;24447;-51
2022/02/23 01:49:26;;;;;;;9.43;3.20;;;;;;;;;;5070597;28;24414;-51
2022/02/23 01:51:51;;;;;;;6.03;2.65;;;;;;;;;;5071826;28;24472;-51
2022/02/23 01:54:16;;;;;;;9.70;2.88;;;;;;;;;;5073204;28;24463;-51
2022/02/23 01:56:42;;;;;;;10.73;2.87;;;;;;;;;;5073733;28;24425;-51
2022/02/23 01:59:07;;;;;;;6.93;2.70;;;;;;;;;;5068564;28;24537;-51
2022/02/23 02:01:32;;;;;;;8.57;3.47;;;;;;;;;;5068066;28;24849;-52
2022/02/23 02:03:57;;;;;;;10.30;3.50;;;;;;;;;;5066772;28;24386;-51
2022/02/23 02:06:22;;;;;;;12.70;3.13;;;;;;;;;;5066520;28;24760;-52
2022/02/23 02:08:47;;;;;;;7.47;2.90;;;;;;;;;;5071296;28;24412;-51
2022/02/23 02:11:12;;;;;;;7.40;2.90;;;;;;;;;;5083305;28;24414;-51
2022/02/23 02:13:38;;;;;;;8.17;3.23;;;;;;;;;;5066351;28;24430;-52
2022/02/23 02:16:03;;;;;;;8.10;3.30;;;;;;;;;;5066719;28;24879;-52
2022/02/23 02:18:29;;;;;;;10.50;3.60;;;;;;;;;;5068079;28;24414;-52
2022/02/23 02:20:54;;;;;;;9.65;3.10;;;;;;;;;;5085922;28;24533;-52
2022/02/23 02:23:19;;;;;;;11.23;3.20;;;;;;;;;;5084478;28;24430;-52
2022/02/23 02:25:44;;;;;;;7.23;2.63;;;;;;;;;;5087004;28;24743;-52
2022/02/23 02:28:09;;;;;;;10.97;3.10;;;;;;;;;;5086045;28;24389;-52
2022/02/23 02:30:35;;;;;;;7.97;3.05;;;;;;;;;;5083442;28;24429;-52
2022/02/23 02:33:00;;;;;;;9.90;3.10;;;;;;;;;;5085977;28;24476;-52
2022/02/23 02:35:25;;;;;;;8.30;2.60;;;;;;;;;;5086430;28;24431;-52
2022/02/23 02:37:51;;;;;;;10.60;3.60;;;;;;;;;;5086187;28;24374;-52
2022/02/23 02:40:16;;;;;;;6.73;2.80;;;;;;;;;;5085579;28;24523;-52
2022/02/23 02:42:41;;;;;;;9.93;3.20;;;;;;;;;;5076564;28;24499;-52
2022/02/23 02:45:06;;;;;;;7.87;2.70;;;;;;;;;;5084489;28;24537;-52
2022/02/23 02:47:32;;;;;;;9.27;2.70;;;;;;;;;;5086596;28;24772;-52
2022/02/23 02:49:57;;;;;;;7.17;2.63;;;;;;;;;;5078475;28;24417;-52
2022/02/23 02:52:22;;;;;;;7.03;2.80;;;;;;;;;;5065198;28;24435;-52
2022/02/23 02:54:47;;;;;;;7.20;2.60;;;;;;;;;;5066085;28;25033;-52
2022/02/23 02:57:12;;;;;;;7.88;2.67;;;;;;;;;;5064941;28;24982;-52
2022/02/23 02:59:38;;;;;;;8.27;2.58;;;;;;;;;;5065733;28;24418;-52
2022/02/23 03:02:03;;;;;;;7.68;2.92;;;;;;;;;;5066007;28;24800;-53
2022/02/23 03:04:28;;;;;;;7.97;2.60;;;;;;;;;;5072375;28;24443;-52
2022/02/23 03:06:53;;;;;;;9.80;2.90;;;;;;;;;;5086122;28;25256;-53
2022/02/23 03:09:18;;;;;;;8.23;2.83;;;;;;;;;;5086018;28;24379;-53
2022/02/23 03:11:44;;;;;;;7.33;2.63;;;;;;;;;;5082108;28;24476;-53
2022/02/23 03:14:09;;;;;;;8.00;2.63;;;;;;;;;;5077155;28;24423;-53
2022/02/23 03:16:34;;;;;;;6.47;2.10;;;;;;;;;;5065692;28;24406;-53
2022/02/23 03:19:00;;;;;;;6.22;2.30;;;;;;;;;;5065477;28;24745;-52
2022/02/23 03:21:25;;;;;;;5.18;2.40;;;;;;;;;;5065679;28;24432;-52
2022/02/23 03:23:50;;;;;;;4.30;1.88;;;;;;;;;;5065451;28;24777;-52
2022/02/23 03:26:16;;;;;;;5.37;1.90;;;;;;;;;;5085269;28;24499;-52
2022/02/23 03:28:41;;;;;;;6.67;2.40;;;;;;;;;;5085683;28;24883;-52
2022/02/23 03:31:07;;;;;;;6.00;2.30;;;;;;;;;;5087062;28;24955;-53
2022/02/23 03:33:34;;;;;;;5.10;2.00;;;;;;;;;;5089557;28;24418;-53
2022/02/23 03:35:59;;;;;;;5.75;2.25;;;;;;;;;;5084351;28;24406;-53
2022/02/23 03:38:24;;;;;;;5.03;2.00;;;;;;;;;;5085342;28;24967;-53
2022/02/23 03:40:49;;;;;;;7.10;2.40;;;;;;;;;;5084553;28;24986;-53
2022/02/23 03:43:17;;;;;;;3.93;2.13;;;;;;;;;;5089454;28;24445;-52
2022/02/23 03:45:43;;;;;;;4.43;1.90;;;;;;;;;;5073692;28;24434;-52
2022/02/23 03:48:08;;;;;;;5.83;2.00;;;;;;;;;;5067168;28;24419;-52
2022/02/23 03:50:33;;;;;;;5.20;1.90;;;;;;;;;;5072956;28;24453;-52
2022/02/23 03:52:58;;;;;;;4.97;2.13;;;;;;;;;;5077729;28;25159;-52
2022/02/23 03:55:23;;;;;;;7.88;2.40;;;;;;;;;;5081595;28;24670;-53
2022/02/23 03:57:49;;;;;;;6.65;1.98;;;;;;;;;;5073523;28;24774;-53
2022/02/23 04:00:15;;;;;;;4.83;2.00;;;;;;;;;;5069453;28;24410;-53
2022/02/23 04:02:40;;;;;;;4.93;1.90;;;;;;;;;;5075180;28;25053;-52
2022/02/23 04:05:06;;;;;;;4.93;1.70;;;;;;;;;;5068953;28;24450;-52
2022/02/23 04:07:32;;;;;;;6.30;1.95;;;;;;;;;;5074176;28;24449;-52
2022/02/23 04:09:57;;;;;;;4.60;1.70;;;;;;;;;;5073194;28;24421;-52
2022/02/23 04:12:24;;;;;;;5.80;2.00;;;;;;;;;;5068592;28;25433;-52
2022/02/23 04:14:49;;;;;;;3.95;1.90;;;;;;;;;;5068880;28;24403;-53
2022/02/23 04:17:14;;;;;;;4.50;1.80;;;;;;;;;;5071782;28;24775;-52
2022/02/23 04:19:39;;;;;;;4.82;1.90;;;;;;;;;;5083782;28;24422;-52
2022/02/23 04:22:05;;;;;;;5.83;2.07;;;;;;;;;;5084995;28;24422;-52
2022/02/23 04:24:30;;;;;;;6.50;2.50;;;;;;;;;;5068627;28;24387;-52
2022/02/23 04:26:56;;;;;;;6.73;2.10;;;;;;;;;;5068673;28;24576;-53
2022/02/23 04:29:21;;;;;;;6.27;2.10;;;;;;;;;;5064459;28;24430;-52
2022/02/23 04:31:46;;;;;;;5.18;2.30;;;;;;;;;;5068872;28;24390;-52
2022/02/23 04:34:12;;;;;;;7.20;2.10;;;;;;;;;;5068329;28;24387;-52
2022/02/23 04:36:37;;;;;;;6.22;1.90;;;;;;;;;;5068301;28;24513;-52
2022/02/23 04:39:03;;;;;;;6.83;2.00;;;;;;;;;;5076763;28;24442;-52
2022/02/23 04:41:28;;;;;;;6.47;1.98;;;;;;;;;;5070377;28;24407;-52
2022/02/23 04:43:53;;;;;;;5.22;2.20;;;;;;;;;;5072787;28;25018;-52
2022/02/23 04:46:18;;;;;;;4.90;2.10;;;;;;;;;;5076808;28;24506;-52
2022/02/23 04:48:44;;;;;;;7.07;2.33;;;;;;;;;;5087892;28;24422;-52
2022/02/23 04:51:09;;;;;;;6.20;2.20;;;;;;;;;;5077648;28;24433;-52
2022/02/23 04:53:35;;;;;;;4.90;2.33;;;;;;;;;;5088291;28;25043;-52
2022/02/23 04:56:02;;;;;;;6.15;2.40;;;;;;;;;;5088228;28;24406;-52
2022/02/23 04:58:27;;;;;;;6.63;2.30;;;;;;;;;;5085750;28;25012;-52
2022/02/23 05:00:52;;;;;;;7.47;2.37;;;;;;;;;;5073929;28;24433;-53
2022/02/23 05:03:17;;;;;;;6.22;2.50;;;;;;;;;;5068249;28;24414;-53
2022/02/23 05:05:45;;;;;;;7.20;2.75;;;;;;;;;;5068027;28;24818;-51
2022/02/23 05:08:10;;;;;;;7.90;2.60;;;;;;;;;;5071474;28;24425;-51
2022/02/23 05:10:35;;;;;;;8.48;2.78;;;;;;;;;;5070636;28;24425;-51
2022/02/23 05:13:00;;;;;;;6.78;2.50;;;;;;;;;;5070684;28;24528;-52
2022/02/23 05:15:26;;;;;;;4.53;2.20;;;;;;;;;;5087920;28;24928;-54
2022/02/23 05:17:51;;;;;;;9.77;2.90;;;;;;;;;;5073094;28;24420;-50
2022/02/23 05:20:16;;;;;;;5.37;2.20;;;;;;;;;;5067588;28;24946;-51
2022/02/23 05:22:45;;;;;;;7.18;2.30;;;;;;;;;;5070477;28;24410;-51
2022/02/23 05:25:10;;;;;;;5.57;2.10;;;;;;;;;;5087916;28;24426;-51
2022/02/23 05:27:35;;;;;;;6.43;2.90;;;;;;;;;;5087314;28;24405;-51
2022/02/23 05:30:00;;;;;;;8.02;2.80;;;;;;;;;;5071267;28;24487;-51
2022/02/23 05:32:26;;;;;;;6.00;2.70;;;;;;;;;;5084249;28;24882;-51
2022/02/23 05:34:51;;;;;;;6.93;2.55;;;;;;;;;;5067713;28;24564;-51
2022/02/23 05:37:16;;;;;;;7.68;2.70;;;;;;;;;;5067438;28;24395;-51
2022/02/23 05:39:41;;;;;;;8.55;2.45;;;;;;;;;;5067030;28;24469;-50
2022/02/23 05:42:06;;;;;;;7.13;2.72;;;;;;;;;;5067443;28;24556;-50
2022/02/23 05:44:31;;;;;;;7.40;2.53;;;;;;;;;;5058982;28;24792;-51
2022/02/23 05:46:57;;;;;;;9.55;3.03;;;;;;;;;;5085213;28;24398;-51
2022/02/23 05:49:22;;;;;;;11.17;3.23;;;;;;;;;;5087501;28;24422;-52
2022/02/23 05:51:47;;;;;;;7.70;2.78;;;;;;;;;;5072877;28;24502;-51
2022/02/23 05:54:13;;;;;;;5.87;3.00;;;;;;;;;;5076915;28;24437;-52
2022/02/23 05:56:38;;;;;;;7.25;2.88;;;;;;;;;;5066598;28;24811;-53
2022/02/23 05:59:03;;;;;;;9.50;3.00;;;;;;;;;;5079877;28;24705;-52
2022/02/23 06:01:28;;;;;;;8.73;3.10;;;;;;;;;;5078650;28;24977;-52
2022/02/23 06:03:54;;;;;;;11.00;3.00;;;;;;;;;;5086940;28;24951;-51
2022/02/23 06:06:19;;;;;;;10.20;3.20;;;;;;;;;;5075929;28;25004;-52
2022/02/23 06:08:44;;;;;;;9.37;3.07;;;;;;;;;;5076309;28;24471;-52
2022/02/23 06:11:09;;;;;;;8.80;3.10;;;;;;;;;;5068231;28;24851;-52
2022/02/23 06:13:35;;;;;;;6.50;2.40;;;;;;;;;;5084662;28;24426;-52
2022/02/23 06:16:01;;;;;;;9.10;3.20;;;;;;;;;;5072828;28;24466;-51
2022/02/23 06:18:26;;;;;;;10.35;2.97;;;;;;;;;;5063627;28;24414;-52
2022/02/23 06:20:54;;;;;;;6.13;2.72;;;;;;;;;;5067262;28;24418;-52
2022/02/23 06:23:19;;;;;;;10.05;3.33;;;;;;;;;;5068145;28;24453;-52
2022/02/23 06:25:44;;;;;;;7.47;3.00;;;;;;;;;;5067354;28;24443;-52
2022/02/23 06:28:09;;;;;;;10.02;3.40;;;;;;;;;;5065035;28;25288;-52
2022/02/23 06:30:34;;;;;;;8.80;2.70;;;;;;;;;;5064951;28;24413;-52
2022/02/23 06:32:59;;;;;;;9.15;3.03;;;;;;;;;;5065335;28;24415;-52
2022/02/23 06:35:25;;;;;;;8.75;3.20;;;;;;;;;;5065707;28;24804;-52
2022/02/23 06:37:50;;;;;;;10.18;3.50;;;;;;;;;;5065357;28;24386;-52
2022/02/23 06:40:15;;;;;;;11.50;3.07;;;;;;;;;;5065174;28;24422;-52
2022/02/23 06:42:41;;;;;;;10.57;2.80;;;;;;;;;;5065342;28;24976;-52
2022/02/23 06:45:06;;;;;;;7.43;3.03;;;;;;;;;;5069276;28;25070;-53
2022/02/23 06:47:31;;;;;;;7.93;3.13;;;;;;;;;;5074548;28;24415;-53
2022/02/23 06:49:56;;;;;;;11.70;3.15;;;;;;;;;;5058277;28;24423;-53
2022/02/23 06:52:22;;;;;;;8.45;2.78;;;;;;;;;;5057951;28;24507;-53
2022/02/23 06:54:48;;;;;;;6.30;2.92;;;;;;;;;;5050296;28;24509;-53
2022/02/23 06:57:13;;;;;;;8.80;3.20;;;;;;;;;;5054906;28;24513;-53
2022/02/23 06:59:39;;;;;;;7.83;2.90;;;;;;;;;;5062098;28;24603;-52
2022/02/23 07:02:04;;;;;;;10.15;3.70;;;;;;;;;;5062265;28;24985;-54
2022/02/23 07:04:29;;;;;;;6.63;2.90;;;;;;;;;;5062013;28;24454;-53
2022/02/23 07:06:54;;;;;;;10.27;2.80;;;;;;;;;;5069069;28;24445;-52
2022/02/23 07:09:19;;;;;;;12.40;3.45;;;;;;;;;;5064050;28;24449;-53
2022/02/23 07:11:44;;;;;;;11.27;3.08;;;;;;;;;;5061365;28;24427;-53
2022/02/23 07:14:10;;;;;;;8.37;2.60;;;;;;;;;;5064480;28;24856;-53
2022/02/23 07:16:37;;;;;;;7.97;3.33;;;;;;;;;;5061531;28;24502;-53
2022/02/23 07:19:02;;;;;;;8.30;3.00;;;;;;;;;;5061603;28;24513;-53
2022/02/23 07:21:27;;;;;;;9.13;3.10;;;;;;;;;;5062558;28;24996;-53
2022/02/23 07:23:52;;;;;;;7.13;2.83;;;;;;;;;;5062384;28;24522;-58
2022/02/23 07:26:17;;;;;;;8.30;3.17;;;;;;;;;;5062054;28;25310;-53
2022/02/23 07:28:44;;;;;;;7.97;2.70;;;;;;;;;;5061614;28;24418;-53
2022/02/23 07:31:10;;;;;;;8.38;3.03;;;;;;;;;;5062160;28;25054;-53
2022/02/23 07:33:35;;;;;;;11.40;3.40;;;;;;;;;;5064997;28;24543;-53
2022/02/23 07:36:01;;;;;;;9.60;3.38;;;;;;;;;;5057903;28;24422;-52
2022/02/23 07:38:26;;;;;;;8.80;2.60;;;;;;;;;;5062531;28;24407;-53
2022/02/23 07:40:51;;;;;;;7.23;2.80;;;;;;;;;;5069847;28;24504;-53
2022/02/23 07:43:16;;;;;;;8.10;3.20;;;;;;;;;;5067571;28;24443;-52
2022/02/23 07:45:41;;;;;;;8.90;2.80;;;;;;;;;;5051426;28;24419;-53
2022/02/23 07:48:08;;;;;;;8.50;2.93;;;;;;;;;;5062312;28;24418;-53
2022/02/23 07:50:34;;;;;;;8.27;2.53;;;;;;;;;;5063437;28;24469;-53
2022/02/23 07:52:59;;;;;;;5.37;2.50;;;;;;;;;;5061861;28;25053;-52
2022/02/23 07:55:25;;;;;;;5.30;2.60;;;;;;;;;;5063022;28;24785;-52
2022/02/23 07:57:51;;;;;;;5.47;2.63;;;;;;;;;;5062795;28;24751;-53
2022/02/23 08:00:18;;;;;;;9.33;2.70;;;;;;;;;;5063461;28;24427;-52
2022/02/23 08:02:43;;;;;;;7.68;2.72;;;;;;;;;;5063234;28;24391;-53
2022/02/23 08:05:08;;;;;;;9.27;3.10;;;;;;;;;;5052675;28;24426;-53
2022/02/23 08:07:34;;;;;;;8.60;2.80;;;;;;;;;;5042351;28;24457;-53
2022/02/23 08:09:59;;;;;;;8.93;2.80;;;;;;;;;;5053609;28;24515;-53
2022/02/23 08:12:26;;;;;;;8.33;3.10;;;;;;;;;;5052406;28;24500;-53
2022/02/23 08:14:53;;;;;;;9.38;3.40;;;;;;;;;;5061453;28;24419;-52
2022/02/23 08:20:02;;;;;;;7.70;2.90;;;;;;;;;;5067199;28;24441;-53
2022/02/23 08:22:29;;;;;;;7.63;3.00;;;;;;;;;;5066681;28;24434;-52
2022/02/23 08:24:55;;;;;;;9.73;3.30;;;;;;;;;;5066360;28;24566;-53
2022/02/23 08:27:21;;;;;;;5.35;2.55;;;;;;;;;;5066768;28;24769;-53
2022/02/23 08:29:47;;;;;;;6.78;2.80;;;;;;;;;;5065657;28;24454;-52
2022/02/23 08:32:13;;;;;;;6.22;2.92;;;;;;;;;;5065305;28;24431;-53
2022/02/23 08:34:39;;;;;;;9.93;2.80;;;;;;;;;;5066528;28;24414;-53
2022/02/23 08:37:05;;;;;;;6.30;3.00;;;;;;;;;;5065856;28;24399;-53
2022/02/23 08:39:30;;;;;;;6.97;2.80;;;;;;;;;;5067543;28;24488;-53
2022/02/23 08:41:55;;;;;;;7.93;2.70;;;;;;;;;;5067411;28;24409;-53
2022/02/23 08:44:21;;;;;;;6.80;2.73;;;;;;;;;;5063775;28;24488;-53
2022/02/23 08:46:46;;;;;;;7.07;3.20;;;;;;;;;;5067508;28;24482;-53
2022/02/23 08:49:11;;;;;;;9.43;3.03;;;;;;;;;;5049570;28;24439;-53
2022/02/23 08:51:38;;;;;;;11.03;3.70;;;;;;;;;;5045815;28;24404;-53
2022/02/23 08:54:04;;;;;;;7.57;3.03;;;;;;;;;;5061366;28;24422;-53
2022/02/23 08:56:29;;;;;;;9.07;3.42;;;;;;;;;;5067793;28;24483;-53
2022/02/23 08:58:55;;;;;;;7.97;3.10;;;;;;;;;;5067180;28;24477;-53
2022/02/23 09:01:20;;;;;;;7.38;2.83;;;;;;;;;;5067144;28;24386;-53
2022/02/23 09:03:46;;;;;;;7.22;2.70;;;;;;;;;;5061625;28;24523;-53
2022/02/23 09:06:11;;;;;;;9.30;3.20;;;;;;;;;;5064111;28;24414;-52
2022/02/23 09:08:36;;;;;;;8.73;3.40;;;;;;;;;;5062654;28;24419;-53
2022/02/23 09:11:01;;;;;;;7.65;3.30;;;;;;;;;;5067120;28;24398;-52
2022/02/23 09:13:26;;;;;;;6.73;2.70;;;;;;;;;;5065332;28;24418;-53
2022/02/23 09:15:52;;;;;;;9.03;3.10;;;;;;;;;;5064979;28;24393;-53
2022/02/23 09:18:17;;;;;;;7.17;2.60;;;;;;;;;;5064233;28;24414;-53
2022/02/23 09:20:42;;;;;;;8.93;2.55;;;;;;;;;;5066966;28;24446;-53
2022/02/23 09:23:07;;;;;;;6.23;3.00;;;;;;;;;;5065174;28;24442;-53
2022/02/23 09:25:32;;;;;;;5.43;2.27;;;;;;;;;;5065632;28;24495;-53
2022/02/23 09:27:57;;;;;;;6.20;2.03;;;;;;;;;;5065225;28;24433;-52
2022/02/23 09:30:23;;;;;;;7.00;2.63;;;;;;;;;;5065914;28;24419;-52
2022/02/23 09:32:49;;;;;;;7.13;2.20;;;;;;;;;;5063620;28;25064;-52
2022/02/23 09:35:15;;;;;;;6.20;2.38;;;;;;;;;;5067479;28;24425;-51
2022/02/23 09:37:40;;;;;;;6.93;2.50;;;;;;;;;;5064135;28;24415;-52
2022/02/23 09:40:06;;;;;;;6.50;2.33;;;;;;;;;;5066367;28;24952;-52
2022/02/23 09:42:31;;;;;;;5.95;2.33;;;;;;;;;;5064986;28;24491;-52
2022/02/23 09:44:58;;;;;;;7.00;2.25;;;;;;;;;;5066741;28;24402;-51
2022/02/23 09:47:25;;;;;;;7.68;2.80;;;;;;;;;;5065086;28;24431;-52
2022/02/23 09:49:50;;;;;;;7.00;2.33;;;;;;;;;;5065926;28;24472;-52
2022/02/23 09:52:16;;;;;;;5.50;2.13;;;;;;;;;;5064793;28;24544;-52
2022/02/23 09:54:41;;;;;;;6.50;2.30;;;;;;;;;;5064243;28;24576;-52
2022/02/23 09:57:06;;;;;;;5.45;1.73;;;;;;;;;;5065051;28;24523;-52
2022/02/23 09:59:31;;;;;;;5.93;2.00;;;;;;;;;;5066309;28;24387;-52
2022/02/23 10:01:58;;;;;;;5.80;1.60;;;;;;;;;;5057711;28;24423;-51
2022/02/23 10:04:24;;;;;;;7.50;2.70;;;;;;;;;;5043636;28;24877;-52
2022/02/23 10:06:49;;;;;;;3.90;2.00;;;;;;;;;;5061359;28;24469;-52
2022/02/23 10:09:15;;;;;;;4.45;2.15;;;;;;;;;;5065888;28;24535;-52
2022/02/23 10:11:41;;;;;;;8.67;2.40;;;;;;;;;;5062382;28;24423;-51
2022/02/23 10:14:08;;;;;;;5.63;2.20;;;;;;;;;;5065608;28;24426;-51
2022/02/23 10:16:34;;;;;;;5.55;2.20;;;;;;;;;;5064337;28;24419;-52
2022/02/23 10:19:09;;;;;;;8.60;2.15;;;;;;;;;;5065806;28;24383;-52
2022/02/23 10:21:48;;;;;;;6.38;2.00;;;;;;;;;;5043856;28;24387;-53
2022/02/23 10:24:23;;;;;;;6.50;2.10;;;;;;;;;;5046968;28;24395;-52
2022/02/23 10:26:53;;;;;;;5.63;2.30;;;;;;;;;;5064175;28;24520;-52
2022/02/23 10:29:24;;;;;;;8.43;2.25;;;;;;;;;;5064728;28;24418;-52
2022/02/23 10:31:50;;;;;;;5.47;2.30;;;;;;;;;;5065443;28;25005;-53
2022/02/23 10:34:19;;;;;;;7.70;3.00;;;;;;;;;;5064749;28;24523;-52
2022/02/23 10:36:56;;;;;;;10.70;2.58;;;;;;;;;;5064330;28;24402;-52
2022/02/23 10:39:21;;;;;;;6.38;2.15;;;;;;;;;;5064086;28;24450;-51
2022/02/23 10:41:46;;;;;;;5.00;2.10;;;;;;;;;;5063816;28;24383;-52
2022/02/23 10:44:12;;;;;;;3.97;2.30;;;;;;;;;;5063794;28;24426;-52
2022/02/23 10:46:37;;;;;;;6.03;2.20;;;;;;;;;;5062559;28;24764;-52
2022/02/23 10:49:03;;;;;;;6.50;2.40;;;;;;;;;;5064576;28;24484;-52
2022/02/23 10:51:32;;;;;;;4.60;1.90;;;;;;;;;;5065128;28;24524;-52
2022/02/23 10:54:06;;;;;;;5.63;2.25;;;;;;;;;;5063480;28;24438;-52
2022/02/23 10:56:32;;;;;;;8.15;2.50;;;;;;;;;;5065533;28;24936;-52
2022/02/23 10:59:02;;;;;;;6.00;2.28;;;;;;;;;;5063888;28;24986;-53
2022/02/23 11:01:27;;;;;;;10.10;2.50;;;;;;;;;;5064756;28;24402;-53
2022/02/23 11:03:53;;;;;;;5.40;2.40;;;;;;;;;;5065413;28;24379;-53
2022/02/23 11:06:18;;;;;;;4.30;2.00;;;;;;;;;;5065316;28;25017;-53
2022/02/23 11:08:49;;;;;;;6.87;2.47;;;;;;;;;;5058169;28;24535;-52
2022/02/23 11:11:14;;;;;;;5.43;2.07;;;;;;;;;;5063600;28;24607;-52
2022/02/23 11:13:39;;;;;;;6.80;2.40;;;;;;;;;;5064787;28;24526;-53
2022/02/23 11:16:05;;;;;;;9.38;2.60;;;;;;;;;;5064628;28;24403;-52
2022/02/23 11:18:30;;;;;;;7.80;2.30;;;;;;;;;;5065719;28;24440;-53
2022/02/23 11:20:56;;;;;;;5.57;2.00;;;;;;;;;;5065123;28;24868;-53
2022/02/23 11:23:25;;;;;;;4.28;2.00;;;;;;;;;;5065269;28;24394;-52
2022/02/23 11:25:51;;;;;;;6.47;2.30;;;;;;;;;;5064951;28;24448;-53
2022/02/23 11:28:21;;;;;;;5.30;2.30;;;;;;;;;;5065565;28;24501;-52
2022/02/23 11:30:47;;;;;;;5.25;1.90;;;;;;;;;;5065211;28;24500;-52
2022/02/23 11:33:13;;;;;;;4.68;2.10;;;;;;;;;;5064920;28;24769;-52
2022/02/23 11:35:41;;;;;;;5.80;1.97;;;;;;;;;;5065286;28;24398;-53
2022/02/23 11:38:07;;;;;;;5.63;1.95;;;;;;;;;;5065021;28;24405;-53
2022/02/23 11:40:49;;;;;;;3.80;1.90;;;;;;;;;;5064948;28;24495;-52
2022/02/23 11:43:24;;;;;;;5.88;2.17;;;;;;;;;;5065274;28;24553;-52
2022/02/23 11:45:53;;;;;;;4.72;1.80;;;;;;;;;;5065238;28;24421;-52
2022/02/23 11:48:19;;;;;;;5.57;2.13;;;;;;;;;;5065216;28;24987;-53
2022/02/23 11:50:59;;;;;;;8.20;2.60;;;;;;;;;;5065225;28;24569;-51
2022/02/23 11:53:35;;;;;;;4.82;2.13;;;;;;;;;;5067969;28;24542;-53
2022/02/23 11:56:13;;;;;;;7.50;2.40;;;;;;;;;;5068768;28;24556;-52
2022/02/23 11:58:42;;;;;;;6.75;2.10;;;;;;;;;;5068594;28;24773;-53
2022/02/23 12:01:07;;;;;;;5.15;2.10;;;;;;;;;;5068319;28;25245;-52
2022/02/23 12:03:34;;;;;;;6.72;2.33;;;;;;;;;;5068649;28;24479;-53
2022/02/23 12:06:03;;;;;;;5.70;2.30;;;;;;;;;;5068603;28;24460;-53
2022/02/23 12:08:31;;;;;;;5.25;2.20;;;;;;;;;;5068716;28;24503;-53
2022/02/23 12:10:56;;;;;;;8.63;2.15;;;;;;;;;;5068416;28;25022;-52
2022/02/23 12:13:34;;;;;;;4.00;1.90;;;;;;;;;;5068026;28;24545;-52
2022/02/23 12:16:18;;;;;;;5.82;2.10;;;;;;;;;;5068504;28;24529;-52
2022/02/23 12:18:46;;;;;;;5.43;2.00;;;;;;;;;;5068345;28;24399;-53
2022/02/23 12:21:11;;;;;;;8.50;2.72;;;;;;;;;;5068019;28;24441;-54
2022/02/23 12:23:38;;;;;;;6.37;2.27;;;;;;;;;;5068280;28;24402;-53
2022/02/23 12:26:14;;;;;;;3.50;2.05;;;;;;;;;;5068028;28;24753;-53
2022/02/23 12:28:39;;;;;;;4.80;1.90;;;;;;;;;;5068069;28;24429;-53
2022/02/23 12:31:14;;;;;;;5.90;2.10;;;;;;;;;;5067775;28;24386;-53
2022/02/23 12:33:40;;;;;;;5.82;2.30;;;;;;;;;;5067982;28;24414;-52
2022/02/23 12:36:09;;;;;;;3.55;2.03;;;;;;;;;;5067837;28;24411;-57
2022/02/23 12:38:36;;;;;;;5.07;2.05;;;;;;;;;;5068167;28;24394;-53
2022/02/23 12:41:10;;;;;;;4.18;1.50;;;;;;;;;;5067649;28;24418;-53
2022/02/23 12:43:36;;;;;;;4.35;1.90;;;;;;;;;;5068221;28;24403;-53
2022/02/23 12:46:01;;;;;;;6.93;2.03;;;;;;;;;;5068194;28;24398;-54
2022/02/23 12:48:30;;;;;;;5.03;1.93;;;;;;;;;;5067706;28;24933;-54
2022/02/23 12:51:07;;;;;;;5.15;2.22;;;;;;;;;;5067889;28;24383;-54
2022/02/23 12:53:32;;;;;;;6.53;1.88;;;;;;;;;;5067925;28;24430;-53
2022/02/23 12:55:58;;;;;;;3.85;1.95;;;;;;;;;;5067737;28;24414;-54
2022/02/23 12:58:32;;;;;;;6.40;1.83;;;;;;;;;;5064220;28;25019;-53
2022/02/23 13:00:58;;;;;;;6.05;1.80;;;;;;;;;;5064632;28;24391;-54
2022/02/23 13:03:23;;;;;;;4.40;1.87;;;;;;;;;;5065184;28;25838;-53
2022/02/23 13:05:48;;;;;;;7.30;2.20;;;;;;;;;;5064995;28;24401;-51
2022/02/23 13:08:19;;;;;;;5.03;1.95;;;;;;;;;;5065305;28;24896;-52
2022/02/23 13:10:55;;;;;;;6.13;2.00;;;;;;;;;;5065365;28;24413;-52
2022/02/23 13:13:43;;;;;;;6.20;2.10;;;;;;;;;;5065556;28;24445;-52
2022/02/23 13:16:08;;;;;;;3.92;1.88;;;;;;;;;;5066503;28;24395;-52
2022/02/23 13:18:45;;;;;;;4.73;2.13;;;;;;;;;;5065194;28;24425;-52
2022/02/23 13:21:16;;;;;;;4.85;2.47;;;;;;;;;;5065304;28;25002;-54
2022/02/23 13:23:51;;;;;;;2.70;1.90;;;;;;;;;;5066282;28;25089;-51
2022/02/23 13:26:16;;;;;;;4.20;2.10;;;;;;;;;;5066904;28;24437;-52
2022/02/23 13:28:57;;;;;;;5.70;2.20;;;;;;;;;;5066708;28;24944;-52
2022/02/23 13:31:35;;;;;;;5.30;2.22;;;;;;;;;;5066594;28;24386;-53
2022/02/23 13:34:17;;;;;;;5.18;2.35;;;;;;;;;;5067032;28;24531;-53
2022/02/23 13:36:43;;;;;;;4.22;2.10;;;;;;;;;;5066916;28;24410;-53
2022/02/23 13:39:18;;;;;;;6.40;2.17;;;;;;;;;;5066385;28;24773;-53
2022/02/23 13:42:07;;;;;;;4.67;2.10;;;;;;;;;;5066576;28;24525;-52
2022/02/23 13:44:36;;;;;;;4.75;2.10;;;;;;;;;;5058594;28;24975;-52
2022/02/23 13:47:03;;;;;;;5.70;2.30;;;;;;;;;;5067073;28;24437;-52
2022/02/23 13:49:28;;;;;;;5.10;2.38;;;;;;;;;;5066265;28;24928;-52
2022/02/23 13:51:58;;;;;;;5.70;2.30;;;;;;;;;;5066174;28;24448;-52
2022/02/23 13:54:23;;;;;;;4.57;1.75;;;;;;;;;;5066566;28;24521;-51
2022/02/23 13:56:49;;;;;;;6.10;2.50;;;;;;;;;;5066768;28;24996;-53
2022/02/23 13:59:16;;;;;;;5.40;2.20;;;;;;;;;;5066609;28;24737;-52
2022/02/23 14:02:04;;;;;;;6.00;2.10;;;;;;;;;;5066368;28;25245;-52
2022/02/23 14:04:36;;;;;;;4.78;2.10;;;;;;;;;;5066355;28;24760;-52
2022/02/23 14:07:01;;;;;;;6.65;2.10;;;;;;;;;;5066604;28;24399;-52
2022/02/23 14:09:26;;;;;;;6.33;2.00;;;;;;;;;;5066054;28;24474;-52
2022/02/23 14:11:57;;;;;;;5.33;1.93;;;;;;;;;;5066215;28;25017;-52
2022/02/23 14:14:22;;;;;;;5.10;1.80;;;;;;;;;;5065841;28;24450;-52
2022/02/23 14:16:47;;;;;;;5.43;2.07;;;;;;;;;;5065220;28;24382;-53
2022/02/23 14:19:20;;;;;;;4.90;2.00;;;;;;;;;;5065756;28;24409;-52
2022/02/23 14:21:50;;;;;;;6.97;2.17;;;;;;;;;;5065704;28;24490;-56
2022/02/23 14:24:16;;;;;;;2.80;1.63;;;;;;;;;;5065795;28;24508;-52
2022/02/23 14:26:51;;;;;;;6.27;2.40;;;;;;;;;;5065966;28;24403;-52
2022/02/23 14:29:16;;;;;;;4.82;2.30;;;;;;;;;;5065907;28;24579;-53
2022/02/23 14:31:45;;;;;;;4.28;2.10;;;;;;;;;;5065607;28;24511;-52
2022/02/23 14:34:13;;;;;;;4.97;1.77;;;;;;;;;;5065580;28;24463;-53
2022/02/23 14:36:38;;;;;;;3.97;1.90;;;;;;;;;;5065973;28;24505;-52
2022/02/23 14:39:04;;;;;;;3.80;2.13;;;;;;;;;;5065819;28;24486;-51
2022/02/23 14:41:29;;;;;;;5.17;2.10;;;;;;;;;;5064828;28;24399;-51